KPGA/PGA METAR and TAF weather

Enter ICAO airport designator
Station Type Date Time Source
KPGA METAR 2022/06/29 00:53 UTC NOAA

KPGA 290053Z AUTO 06006KT 10SM CLR 37/04 A3007 RMK AO2 SLP104 T03670039


Station Type Date Time Source
KPGA Decoded METAR 2022/06/29 00:53 UTC NOAA

PAGE MUNICIPAL AIRPORT, AZ, United States (KPGA) 36-56N 111-27W 1307M
Jun 28, 2022 - 08:53 PM EDT / 2022.06.29 0053 UTC
Wind: from the ENE (060 degrees) at 7 MPH (6 KT):0
Visibility: 10 mile(s):0
Sky conditions: clear
Temperature: 98.1 F (36.7 C)
Dew Point: 39.0 F (3.9 C)
Relative Humidity: 13%
Pressure (altimeter): 30.07 in. Hg (1018 hPa)
ob: KPGA 290053Z AUTO 06006KT 10SM CLR 37/04 A3007 RMK AO2 SLP104 T03670039
cycle: 1

Station Type Date Time Source
KPGA TAF 2022/06/28 18:40 UTC NOAA

TAF KPGA 281738Z 2818/2918 VRB06KT P6SM SKC
FM281900 05008KT P6SM SCT130
FM290200 VRB06KT P6SM BKN100

Example: see airport list